sensor_id;sensor_type;location;lat;lon;timestamp;temperature;humidity
3100;DHT22;1560;52.746;13.474;2023-09-19T00:00:44;17.90;99.90
3100;DHT22;1560;52.746;13.474;2023-09-19T00:03:14;17.90;99.90
3100;DHT22;1560;52.746;13.474;2023-09-19T00:05:43;17.80;99.90
3100;DHT22;1560;52.746;13.474;2023-09-19T00:08:12;17.80;99.90
3100;DHT22;1560;52.746;13.474;2023-09-19T00:10:41;17.80;99.90
3100;DHT22;1560;52.746;13.474;2023-09-19T00:13:10;17.80;99.90
3100;DHT22;1560;52.746;13.474;2023-09-19T00:15:42;17.80;99.90
3100;DHT22;1560;52.746;13.474;2023-09-19T00:18:12;17.80;99.90
3100;DHT22;1560;52.746;13.474;2023-09-19T00:20:42;17.80;99.90
3100;DHT22;1560;52.746;13.474;2023-09-19T00:23:13;17.80;99.90
3100;DHT22;1560;52.746;13.474;2023-09-19T00:25:41;17.80;99.90
3100;DHT22;1560;52.746;13.474;2023-09-19T00:28:10;17.80;99.90
3100;DHT22;1560;52.746;13.474;2023-09-19T00:30:39;17.70;99.90
3100;DHT22;1560;52.746;13.474;2023-09-19T00:33:09;17.60;99.90
3100;DHT22;1560;52.746;13.474;2023-09-19T00:35:38;17.60;99.90
3100;DHT22;1560;52.746;13.474;2023-09-19T00:40:45;17.60;99.90
3100;DHT22;1560;52.746;13.474;2023-09-19T00:43:14;17.50;99.90
3100;DHT22;1560;52.746;13.474;2023-09-19T00:48:22;17.50;99.90
3100;DHT22;1560;52.746;13.474;2023-09-19T00:50:53;17.50;99.90
3100;DHT22;1560;52.746;13.474;2023-09-19T00:56:01;17.50;99.90
3100;DHT22;1560;52.746;13.474;2023-09-19T00:58:30;17.50;99.90
3100;DHT22;1560;52.746;13.474;2023-09-19T01:03:45;17.50;99.90
3100;DHT22;1560;52.746;13.474;2023-09-19T01:06:13;17.50;99.90
3100;DHT22;1560;52.746;13.474;2023-09-19T01:08:42;17.60;99.90
3100;DHT22;1560;52.746;13.474;2023-09-19T01:11:15;17.50;99.90
3100;DHT22;1560;52.746;13.474;2023-09-19T01:13:48;17.40;99.90
3100;DHT22;1560;52.746;13.474;2023-09-19T01:19:01;17.40;99.90
3100;DHT22;1560;52.746;13.474;2023-09-19T01:24:28;17.40;99.90
3100;DHT22;1560;52.746;13.474;2023-09-19T01:27:21;17.40;99.90
3100;DHT22;1560;52.746;13.474;2023-09-19T01:29:49;17.40;99.90
3100;DHT22;1560;52.746;13.474;2023-09-19T01:32:20;17.30;99.90
3100;DHT22;1560;52.746;13.474;2023-09-19T01:34:52;17.30;99.90
3100;DHT22;1560;52.746;13.474;2023-09-19T01:37:23;17.30;99.90
3100;DHT22;1560;52.746;13.474;2023-09-19T01:39:55;17.30;99.90
3100;DHT22;1560;52.746;13.474;2023-09-19T01:42:31;17.30;99.90
3100;DHT22;1560;52.746;13.474;2023-09-19T01:47:42;17.40;99.90
3100;DHT22;1560;52.746;13.474;2023-09-19T01:50:20;17.40;99.90
3100;DHT22;1560;52.746;13.474;2023-09-19T01:55:28;17.40;99.90
3100;DHT22;1560;52.746;13.474;2023-09-19T02:00:41;17.50;99.90
3100;DHT22;1560;52.746;13.474;2023-09-19T02:03:11;17.50;99.90
3100;DHT22;1560;52.746;13.474;2023-09-19T02:05:39;17.50;99.90
3100;DHT22;1560;52.746;13.474;2023-09-19T02:08:08;17.50;99.90
3100;DHT22;1560;52.746;13.474;2023-09-19T02:13:15;17.40;99.90
3100;DHT22;1560;52.746;13.474;2023-09-19T02:15:45;17.40;99.90
3100;DHT22;1560;52.746;13.474;2023-09-19T02:18:14;17.30;99.90
3100;DHT22;1560;52.746;13.474;2023-09-19T02:20:43;17.30;99.90
3100;DHT22;1560;52.746;13.474;2023-09-19T02:23:13;17.30;99.90
3100;DHT22;1560;52.746;13.474;2023-09-19T02:25:43;17.30;99.90
3100;DHT22;1560;52.746;13.474;2023-09-19T02:28:12;17.30;99.90
3100;DHT22;1560;52.746;13.474;2023-09-19T02:30:40;17.30;99.90
3100;DHT22;1560;52.746;13.474;2023-09-19T02:35:46;17.30;99.90
3100;DHT22;1560;52.746;13.474;2023-09-19T02:40:52;17.20;99.90
3100;DHT22;1560;52.746;13.474;2023-09-19T02:43:22;17.20;99.90
3100;DHT22;1560;52.746;13.474;2023-09-19T02:45:51;17.10;99.90
3100;DHT22;1560;52.746;13.474;2023-09-19T02:48:21;17.10;99.90
3100;DHT22;1560;52.746;13.474;2023-09-19T02:50:50;17.10;99.90
3100;DHT22;1560;52.746;13.474;2023-09-19T02:53:19;17.00;99.90
3100;DHT22;1560;52.746;13.474;2023-09-19T02:58:25;17.00;99.90
3100;DHT22;1560;52.746;13.474;2023-09-19T03:00:55;17.10;99.90
3100;DHT22;1560;52.746;13.474;2023-09-19T03:03:23;17.10;99.90
3100;DHT22;1560;52.746;13.474;2023-09-19T03:05:52;17.10;99.90
3100;DHT22;1560;52.746;13.474;2023-09-19T03:10:58;17.00;99.90
3100;DHT22;1560;52.746;13.474;2023-09-19T03:13:28;17.00;99.90
3100;DHT22;1560;52.746;13.474;2023-09-19T03:18:35;17.00;99.90
3100;DHT22;1560;52.746;13.474;2023-09-19T03:21:04;17.00;99.90
3100;DHT22;1560;52.746;13.474;2023-09-19T03:23:33;17.00;99.90
3100;DHT22;1560;52.746;13.474;2023-09-19T03:28:39;16.90;99.90
3100;DHT22;1560;52.746;13.474;2023-09-19T03:31:08;16.90;99.90
3100;DHT22;1560;52.746;13.474;2023-09-19T03:33:37;16.90;99.90
3100;DHT22;1560;52.746;13.474;2023-09-19T03:36:06;16.80;99.90
3100;DHT22;1560;52.746;13.474;2023-09-19T03:38:35;16.80;99.90
3100;DHT22;1560;52.746;13.474;2023-09-19T03:41:04;16.80;99.90
3100;DHT22;1560;52.746;13.474;2023-09-19T03:43:33;16.80;99.90
3100;DHT22;1560;52.746;13.474;2023-09-19T03:46:02;16.70;99.90
3100;DHT22;1560;52.746;13.474;2023-09-19T03:48:32;16.70;99.90
3100;DHT22;1560;52.746;13.474;2023-09-19T03:53:37;16.80;99.90
3100;DHT22;1560;52.746;13.474;2023-09-19T03:56:06;16.70;99.90
3100;DHT22;1560;52.746;13.474;2023-09-19T03:58:35;16.70;99.90
3100;DHT22;1560;52.746;13.474;2023-09-19T04:01:05;16.70;99.90
3100;DHT22;1560;52.746;13.474;2023-09-19T04:03:34;16.70;99.90
3100;DHT22;1560;52.746;13.474;2023-09-19T04:08:42;16.70;99.90
3100;DHT22;1560;52.746;13.474;2023-09-19T04:11:11;16.70;99.90
3100;DHT22;1560;52.746;13.474;2023-09-19T04:13:40;16.70;99.90
3100;DHT22;1560;52.746;13.474;2023-09-19T04:18:44;16.60;99.90
3100;DHT22;1560;52.746;13.474;2023-09-19T04:23:49;16.60;99.90
3100;DHT22;1560;52.746;13.474;2023-09-19T04:26:18;16.60;99.90
3100;DHT22;1560;52.746;13.474;2023-09-19T04:31:24;16.50;99.90
3100;DHT22;1560;52.746;13.474;2023-09-19T04:33:53;16.50;99.90
3100;DHT22;1560;52.746;13.474;2023-09-19T04:36:22;16.50;99.90
3100;DHT22;1560;52.746;13.474;2023-09-19T04:38:50;16.50;99.90
3100;DHT22;1560;52.746;13.474;2023-09-19T04:43:58;16.50;99.90
3100;DHT22;1560;52.746;13.474;2023-09-19T04:46:27;16.50;99.90
3100;DHT22;1560;52.746;13.474;2023-09-19T04:48:55;16.50;99.90
3100;DHT22;1560;52.746;13.474;2023-09-19T04:51:25;16.40;99.90
3100;DHT22;1560;52.746;13.474;2023-09-19T04:53:55;16.40;99.90
3100;DHT22;1560;52.746;13.474;2023-09-19T04:59:01;16.40;99.90
3100;DHT22;1560;52.746;13.474;2023-09-19T05:01:30;16.40;99.90
3100;DHT22;1560;52.746;13.474;2023-09-19T05:03:58;16.40;99.90
3100;DHT22;1560;52.746;13.474;2023-09-19T05:06:28;16.40;99.90
3100;DHT22;1560;52.746;13.474;2023-09-19T05:08:56;16.40;99.90
3100;DHT22;1560;52.746;13.474;2023-09-19T05:11:26;16.40;99.90
3100;DHT22;1560;52.746;13.474;2023-09-19T05:16:32;16.40;99.90
3100;DHT22;1560;52.746;13.474;2023-09-19T05:21:37;16.30;99.90
3100;DHT22;1560;52.746;13.474;2023-09-19T05:24:07;16.30;99.90
3100;DHT22;1560;52.746;13.474;2023-09-19T05:26:35;16.30;99.90
3100;DHT22;1560;52.746;13.474;2023-09-19T05:29:04;16.20;99.90
3100;DHT22;1560;52.746;13.474;2023-09-19T05:31:35;16.20;99.90
3100;DHT22;1560;52.746;13.474;2023-09-19T05:34:07;16.20;99.90
3100;DHT22;1560;52.746;13.474;2023-09-19T05:36:36;16.20;99.90
3100;DHT22;1560;52.746;13.474;2023-09-19T05:41:43;16.20;99.90
3100;DHT22;1560;52.746;13.474;2023-09-19T05:44:12;16.20;99.90
3100;DHT22;1560;52.746;13.474;2023-09-19T05:46:41;16.20;99.90
3100;DHT22;1560;52.746;13.474;2023-09-19T05:49:10;16.10;99.90
3100;DHT22;1560;52.746;13.474;2023-09-19T05:51:38;16.10;99.90
3100;DHT22;1560;52.746;13.474;2023-09-19T05:56:44;16.10;99.90
3100;DHT22;1560;52.746;13.474;2023-09-19T06:01:51;16.10;99.90
3100;DHT22;1560;52.746;13.474;2023-09-19T06:04:20;16.20;99.90
3100;DHT22;1560;52.746;13.474;2023-09-19T06:06:49;16.20;99.90
3100;DHT22;1560;52.746;13.474;2023-09-19T06:09:17;16.20;99.90
3100;DHT22;1560;52.746;13.474;2023-09-19T06:11:46;16.20;99.90
3100;DHT22;1560;52.746;13.474;2023-09-19T06:14:16;16.20;99.90
3100;DHT22;1560;52.746;13.474;2023-09-19T06:16:48;16.20;99.90
3100;DHT22;1560;52.746;13.474;2023-09-19T06:21:54;16.20;99.90
3100;DHT22;1560;52.746;13.474;2023-09-19T06:24:23;16.20;99.90
3100;DHT22;1560;52.746;13.474;2023-09-19T06:26:53;16.30;99.90
3100;DHT22;1560;52.746;13.474;2023-09-19T06:31:59;16.40;99.90
3100;DHT22;1560;52.746;13.474;2023-09-19T06:34:28;16.40;99.90
3100;DHT22;1560;52.746;13.474;2023-09-19T06:36:57;16.40;99.90
3100;DHT22;1560;52.746;13.474;2023-09-19T06:39:26;16.50;99.90
3100;DHT22;1560;52.746;13.474;2023-09-19T06:41:54;16.60;99.90
3100;DHT22;1560;52.746;13.474;2023-09-19T06:47:00;16.70;99.90
3100;DHT22;1560;52.746;13.474;2023-09-19T06:49:29;16.70;99.90
3100;DHT22;1560;52.746;13.474;2023-09-19T06:51:59;16.80;99.90
3100;DHT22;1560;52.746;13.474;2023-09-19T06:54:28;16.90;99.90
3100;DHT22;1560;52.746;13.474;2023-09-19T06:56:58;16.90;99.90
3100;DHT22;1560;52.746;13.474;2023-09-19T06:59:27;17.00;99.90
3100;DHT22;1560;52.746;13.474;2023-09-19T07:01:55;17.10;99.90
3100;DHT22;1560;52.746;13.474;2023-09-19T07:04:26;17.20;99.90
3100;DHT22;1560;52.746;13.474;2023-09-19T07:06:54;17.30;99.90
3100;DHT22;1560;52.746;13.474;2023-09-19T07:12:00;17.40;99.90
3100;DHT22;1560;52.746;13.474;2023-09-19T07:14:29;17.40;99.90
3100;DHT22;1560;52.746;13.474;2023-09-19T07:19:35;17.50;99.90
3100;DHT22;1560;52.746;13.474;2023-09-19T07:22:04;17.50;99.90
3100;DHT22;1560;52.746;13.474;2023-09-19T07:24:34;17.40;99.90
3100;DHT22;1560;52.746;13.474;2023-09-19T07:27:07;17.40;99.90
3100;DHT22;1560;52.746;13.474;2023-09-19T07:29:36;17.40;99.90
3100;DHT22;1560;52.746;13.474;2023-09-19T07:32:06;17.40;99.90
3100;DHT22;1560;52.746;13.474;2023-09-19T07:34:36;17.40;99.90
3100;DHT22;1560;52.746;13.474;2023-09-19T07:37:06;17.40;99.90
3100;DHT22;1560;52.746;13.474;2023-09-19T07:39:35;17.40;99.90
3100;DHT22;1560;52.746;13.474;2023-09-19T07:42:04;17.40;85.50
3100;DHT22;1560;52.746;13.474;2023-09-19T07:44:35;17.40;1.00
3100;DHT22;1560;52.746;13.474;2023-09-19T07:47:04;17.30;1.00
3100;DHT22;1560;52.746;13.474;2023-09-19T07:49:33;17.30;1.00
3100;DHT22;1560;52.746;13.474;2023-09-19T07:52:03;17.30;1.00
3100;DHT22;1560;52.746;13.474;2023-09-19T07:54:32;17.20;1.00
3100;DHT22;1560;52.746;13.474;2023-09-19T07:57:03;17.30;1.00
3100;DHT22;1560;52.746;13.474;2023-09-19T08:02:08;17.50;1.00
3100;DHT22;1560;52.746;13.474;2023-09-19T08:04:39;17.60;1.00
3100;DHT22;1560;52.746;13.474;2023-09-19T08:09:43;17.80;1.00
3100;DHT22;1560;52.746;13.474;2023-09-19T08:12:14;17.90;1.00
3100;DHT22;1560;52.746;13.474;2023-09-19T08:14:43;17.80;99.90
3100;DHT22;1560;52.746;13.474;2023-09-19T08:17:11;17.80;1.00
3100;DHT22;1560;52.746;13.474;2023-09-19T08:19:40;17.80;1.00
3100;DHT22;1560;52.746;13.474;2023-09-19T08:22:09;17.80;1.00
3100;DHT22;1560;52.746;13.474;2023-09-19T08:24:39;17.80;99.90
3100;DHT22;1560;52.746;13.474;2023-09-19T08:27:10;17.60;99.90
3100;DHT22;1560;52.746;13.474;2023-09-19T08:32:15;17.60;1.00
3100;DHT22;1560;52.746;13.474;2023-09-19T08:34:46;17.70;1.00
3100;DHT22;1560;52.746;13.474;2023-09-19T08:37:14;17.70;1.00
3100;DHT22;1560;52.746;13.474;2023-09-19T08:39:45;17.90;99.90
3100;DHT22;1560;52.746;13.474;2023-09-19T08:42:14;18.00;99.90
3100;DHT22;1560;52.746;13.474;2023-09-19T08:44:44;18.30;99.90
3100;DHT22;1560;52.746;13.474;2023-09-19T08:49:57;18.90;99.90
3100;DHT22;1560;52.746;13.474;2023-09-19T08:55:04;19.50;99.90
3100;DHT22;1560;52.746;13.474;2023-09-19T08:57:37;19.70;99.90
3100;DHT22;1560;52.746;13.474;2023-09-19T09:00:13;20.00;99.90
3100;DHT22;1560;52.746;13.474;2023-09-19T09:02:45;20.00;99.90
3100;DHT22;1560;52.746;13.474;2023-09-19T09:05:15;20.20;99.90
3100;DHT22;1560;52.746;13.474;2023-09-19T09:07:46;20.20;99.90
3100;DHT22;1560;52.746;13.474;2023-09-19T09:10:17;20.00;99.90
3100;DHT22;1560;52.746;13.474;2023-09-19T09:12:46;19.90;99.90
3100;DHT22;1560;52.746;13.474;2023-09-19T09:17:53;20.20;99.90
3100;DHT22;1560;52.746;13.474;2023-09-19T09:20:22;20.20;99.90
3100;DHT22;1560;52.746;13.474;2023-09-19T09:22:55;20.20;99.90
3100;DHT22;1560;52.746;13.474;2023-09-19T09:25:46;20.10;99.90
3100;DHT22;1560;52.746;13.474;2023-09-19T09:28:19;20.40;99.90
3100;DHT22;1560;52.746;13.474;2023-09-19T09:30:49;20.20;99.90
3100;DHT22;1560;52.746;13.474;2023-09-19T09:33:18;20.10;99.90
3100;DHT22;1560;52.746;13.474;2023-09-19T09:35:52;20.30;99.90
3100;DHT22;1560;52.746;13.474;2023-09-19T09:40:58;20.70;99.90
3100;DHT22;1560;52.746;13.474;2023-09-19T09:43:31;21.00;99.90
3100;DHT22;1560;52.746;13.474;2023-09-19T09:46:13;21.30;99.90
3100;DHT22;1560;52.746;13.474;2023-09-19T09:51:36;21.90;99.90
3100;DHT22;1560;52.746;13.474;2023-09-19T09:54:16;22.20;99.90
3100;DHT22;1560;52.746;13.474;2023-09-19T09:59:50;23.00;99.90
3100;DHT22;1560;52.746;13.474;2023-09-19T10:02:24;22.90;1.00
3100;DHT22;1560;52.746;13.474;2023-09-19T10:04:53;23.10;1.00
3100;DHT22;1560;52.746;13.474;2023-09-19T10:07:28;23.10;99.90
3100;DHT22;1560;52.746;13.474;2023-09-19T10:10:06;23.00;99.90
3100;DHT22;1560;52.746;13.474;2023-09-19T10:15:21;23.10;99.90
3100;DHT22;1560;52.746;13.474;2023-09-19T10:17:53;23.40;99.90
3100;DHT22;1560;52.746;13.474;2023-09-19T10:20:23;23.40;1.00
3100;DHT22;1560;52.746;13.474;2023-09-19T10:23:05;23.50;1.00
3100;DHT22;1560;52.746;13.474;2023-09-19T10:25:38;23.20;99.90
3100;DHT22;1560;52.746;13.474;2023-09-19T10:28:09;22.60;1.00
3100;DHT22;1560;52.746;13.474;2023-09-19T10:30:43;22.00;99.90
3100;DHT22;1560;52.746;13.474;2023-09-19T10:33:13;21.40;1.00
3100;DHT22;1560;52.746;13.474;2023-09-19T10:35:44;21.10;99.90
3100;DHT22;1560;52.746;13.474;2023-09-19T10:38:14;20.90;99.90
3100;DHT22;1560;52.746;13.474;2023-09-19T10:40:42;20.70;99.90
3100;DHT22;1560;52.746;13.474;2023-09-19T10:45:51;20.50;99.90
3100;DHT22;1560;52.746;13.474;2023-09-19T10:48:22;20.70;99.90
3100;DHT22;1560;52.746;13.474;2023-09-19T10:50:57;21.00;99.90
3100;DHT22;1560;52.746;13.474;2023-09-19T10:53:28;21.30;99.90
3100;DHT22;1560;52.746;13.474;2023-09-19T10:56:00;21.70;99.90
3100;DHT22;1560;52.746;13.474;2023-09-19T10:58:33;21.90;99.90
3100;DHT22;1560;52.746;13.474;2023-09-19T11:01:04;21.60;99.90
3100;DHT22;1560;52.746;13.474;2023-09-19T11:03:34;21.20;99.90
3100;DHT22;1560;52.746;13.474;2023-09-19T11:06:06;21.30;99.90
3100;DHT22;1560;52.746;13.474;2023-09-19T11:08:56;21.60;99.90
3100;DHT22;1560;52.746;13.474;2023-09-19T11:11:45;21.50;1.00
3100;DHT22;1560;52.746;13.474;2023-09-19T11:20:24;22.20;1.00
3100;DHT22;1560;52.746;13.474;2023-09-19T11:23:22;22.50;99.90
3100;DHT22;1560;52.746;13.474;2023-09-19T11:25:53;22.60;1.00
3100;DHT22;1560;52.746;13.474;2023-09-19T11:28:32;22.40;1.00
3100;DHT22;1560;52.746;13.474;2023-09-19T11:36:36;21.90;99.90
3100;DHT22;1560;52.746;13.474;2023-09-19T11:39:06;21.60;1.00
3100;DHT22;1560;52.746;13.474;2023-09-19T11:41:40;21.70;99.90
3100;DHT22;1560;52.746;13.474;2023-09-19T11:44:34;22.00;99.90
3100;DHT22;1560;52.746;13.474;2023-09-19T11:47:07;22.20;99.90
3100;DHT22;1560;52.746;13.474;2023-09-19T11:49:40;22.30;99.90
3100;DHT22;1560;52.746;13.474;2023-09-19T11:52:10;22.20;99.90
3100;DHT22;1560;52.746;13.474;2023-09-19T11:54:41;22.30;99.90
3100;DHT22;1560;52.746;13.474;2023-09-19T11:57:12;22.40;99.90
3100;DHT22;1560;52.746;13.474;2023-09-19T12:02:29;22.50;99.90
3100;DHT22;1560;52.746;13.474;2023-09-19T12:04:59;22.30;99.90
3100;DHT22;1560;52.746;13.474;2023-09-19T12:07:27;22.20;1.00
3100;DHT22;1560;52.746;13.474;2023-09-19T12:10:05;22.30;99.90
3100;DHT22;1560;52.746;13.474;2023-09-19T12:12:35;22.30;99.90
3100;DHT22;1560;52.746;13.474;2023-09-19T12:15:06;21.90;99.90
3100;DHT22;1560;52.746;13.474;2023-09-19T12:17:39;21.60;1.00
3100;DHT22;1560;52.746;13.474;2023-09-19T12:20:10;21.50;99.90
3100;DHT22;1560;52.746;13.474;2023-09-19T12:25:20;21.40;99.90
3100;DHT22;1560;52.746;13.474;2023-09-19T12:27:50;21.40;99.90
3100;DHT22;1560;52.746;13.474;2023-09-19T12:30:21;21.40;99.90
3100;DHT22;1560;52.746;13.474;2023-09-19T12:32:50;21.30;99.90
3100;DHT22;1560;52.746;13.474;2023-09-19T12:35:28;21.20;99.90
3100;DHT22;1560;52.746;13.474;2023-09-19T12:37:58;21.30;99.90
3100;DHT22;1560;52.746;13.474;2023-09-19T12:40:27;21.00;99.90
3100;DHT22;1560;52.746;13.474;2023-09-19T12:42:56;20.80;99.90
3100;DHT22;1560;52.746;13.474;2023-09-19T12:45:26;20.80;99.90
3100;DHT22;1560;52.746;13.474;2023-09-19T12:48:23;20.80;99.90
3100;DHT22;1560;52.746;13.474;2023-09-19T12:51:05;20.80;99.90
3100;DHT22;1560;52.746;13.474;2023-09-19T12:56:12;20.80;99.90
3100;DHT22;1560;52.746;13.474;2023-09-19T12:58:54;20.80;99.90
3100;DHT22;1560;52.746;13.474;2023-09-19T13:01:24;20.70;99.90
3100;DHT22;1560;52.746;13.474;2023-09-19T13:06:52;20.50;99.90
3100;DHT22;1560;52.746;13.474;2023-09-19T13:09:23;20.60;99.90
3100;DHT22;1560;52.746;13.474;2023-09-19T13:14:31;20.50;99.90
3100;DHT22;1560;52.746;13.474;2023-09-19T13:17:03;20.50;99.90
3100;DHT22;1560;52.746;13.474;2023-09-19T13:19:55;20.50;99.90
3100;DHT22;1560;52.746;13.474;2023-09-19T13:22:38;20.40;99.90
3100;DHT22;1560;52.746;13.474;2023-09-19T13:25:08;20.40;99.90
3100;DHT22;1560;52.746;13.474;2023-09-19T13:27:41;20.30;99.90
3100;DHT22;1560;52.746;13.474;2023-09-19T13:32:49;20.30;99.90
3100;DHT22;1560;52.746;13.474;2023-09-19T13:35:18;20.30;99.90
3100;DHT22;1560;52.746;13.474;2023-09-19T13:37:47;20.20;99.90
3100;DHT22;1560;52.746;13.474;2023-09-19T13:40:18;20.20;99.90
3100;DHT22;1560;52.746;13.474;2023-09-19T13:42:47;20.10;99.90
3100;DHT22;1560;52.746;13.474;2023-09-19T13:45:16;20.00;99.90
3100;DHT22;1560;52.746;13.474;2023-09-19T13:47:46;20.00;99.90
3100;DHT22;1560;52.746;13.474;2023-09-19T13:50:16;20.00;99.90
3100;DHT22;1560;52.746;13.474;2023-09-19T13:52:49;20.00;99.90
3100;DHT22;1560;52.746;13.474;2023-09-19T13:55:18;19.90;99.90
3100;DHT22;1560;52.746;13.474;2023-09-19T14:00:24;19.70;99.90
3100;DHT22;1560;52.746;13.474;2023-09-19T14:02:53;19.80;99.90
3100;DHT22;1560;52.746;13.474;2023-09-19T14:05:21;19.80;99.90
3100;DHT22;1560;52.746;13.474;2023-09-19T14:07:50;19.70;99.90
3100;DHT22;1560;52.746;13.474;2023-09-19T14:10:21;19.80;99.90
3100;DHT22;1560;52.746;13.474;2023-09-19T14:12:49;19.70;99.90
3100;DHT22;1560;52.746;13.474;2023-09-19T14:15:18;19.60;99.90
3100;DHT22;1560;52.746;13.474;2023-09-19T14:17:47;19.70;99.90
3100;DHT22;1560;52.746;13.474;2023-09-19T14:20:16;19.80;99.90
3100;DHT22;1560;52.746;13.474;2023-09-19T14:22:44;19.70;99.90
3100;DHT22;1560;52.746;13.474;2023-09-19T14:25:13;19.80;99.90
3100;DHT22;1560;52.746;13.474;2023-09-19T14:27:42;19.80;99.90
3100;DHT22;1560;52.746;13.474;2023-09-19T14:30:12;19.80;99.90
3100;DHT22;1560;52.746;13.474;2023-09-19T14:32:41;19.70;99.90
3100;DHT22;1560;52.746;13.474;2023-09-19T14:35:10;19.70;99.90
3100;DHT22;1560;52.746;13.474;2023-09-19T14:37:39;19.70;99.90
3100;DHT22;1560;52.746;13.474;2023-09-19T14:40:10;19.70;99.90
3100;DHT22;1560;52.746;13.474;2023-09-19T14:42:40;19.70;99.90
3100;DHT22;1560;52.746;13.474;2023-09-19T14:45:11;19.70;99.90
3100;DHT22;1560;52.746;13.474;2023-09-19T14:47:42;19.70;99.90
3100;DHT22;1560;52.746;13.474;2023-09-19T14:50:11;19.70;99.90
3100;DHT22;1560;52.746;13.474;2023-09-19T14:52:40;19.70;99.90
3100;DHT22;1560;52.746;13.474;2023-09-19T14:57:44;19.60;99.90
3100;DHT22;1560;52.746;13.474;2023-09-19T15:02:53;19.50;99.90
3100;DHT22;1560;52.746;13.474;2023-09-19T15:05:23;19.50;99.90
3100;DHT22;1560;52.746;13.474;2023-09-19T15:07:52;19.50;99.90
3100;DHT22;1560;52.746;13.474;2023-09-19T15:10:20;19.50;99.90
3100;DHT22;1560;52.746;13.474;2023-09-19T15:12:49;19.50;99.90
3100;DHT22;1560;52.746;13.474;2023-09-19T15:15:18;19.40;99.90
3100;DHT22;1560;52.746;13.474;2023-09-19T15:17:46;19.50;99.90
3100;DHT22;1560;52.746;13.474;2023-09-19T15:20:15;19.50;99.90
3100;DHT22;1560;52.746;13.474;2023-09-19T15:22:45;19.50;99.90
3100;DHT22;1560;52.746;13.474;2023-09-19T15:25:14;19.40;99.90
3100;DHT22;1560;52.746;13.474;2023-09-19T15:27:43;19.40;99.90
3100;DHT22;1560;52.746;13.474;2023-09-19T15:30:13;19.40;99.90
3100;DHT22;1560;52.746;13.474;2023-09-19T15:32:42;19.40;99.90
3100;DHT22;1560;52.746;13.474;2023-09-19T15:35:11;19.40;99.90
3100;DHT22;1560;52.746;13.474;2023-09-19T15:37:41;19.40;99.90
3100;DHT22;1560;52.746;13.474;2023-09-19T15:40:10;19.30;99.90
3100;DHT22;1560;52.746;13.474;2023-09-19T15:45:18;19.30;99.90
3100;DHT22;1560;52.746;13.474;2023-09-19T15:47:46;19.30;99.90
3100;DHT22;1560;52.746;13.474;2023-09-19T15:52:54;19.30;99.90
3100;DHT22;1560;52.746;13.474;2023-09-19T15:55:23;19.30;99.90
3100;DHT22;1560;52.746;13.474;2023-09-19T15:57:53;19.20;99.90
3100;DHT22;1560;52.746;13.474;2023-09-19T16:00:22;19.20;99.90
3100;DHT22;1560;52.746;13.474;2023-09-19T16:02:50;19.20;99.90
3100;DHT22;1560;52.746;13.474;2023-09-19T16:05:20;19.20;99.90
3100;DHT22;1560;52.746;13.474;2023-09-19T16:07:48;19.10;99.90
3100;DHT22;1560;52.746;13.474;2023-09-19T16:10:17;19.20;99.90
3100;DHT22;1560;52.746;13.474;2023-09-19T16:12:46;19.10;99.90
3100;DHT22;1560;52.746;13.474;2023-09-19T16:17:51;19.10;99.90
3100;DHT22;1560;52.746;13.474;2023-09-19T16:20:21;19.00;99.90
3100;DHT22;1560;52.746;13.474;2023-09-19T16:22:50;19.00;99.90
3100;DHT22;1560;52.746;13.474;2023-09-19T16:25:19;19.00;99.90
3100;DHT22;1560;52.746;13.474;2023-09-19T16:27:47;18.90;99.90
3100;DHT22;1560;52.746;13.474;2023-09-19T16:30:17;18.80;99.90
3100;DHT22;1560;52.746;13.474;2023-09-19T16:32:46;18.80;99.90
3100;DHT22;1560;52.746;13.474;2023-09-19T16:35:15;18.70;99.90
3100;DHT22;1560;52.746;13.474;2023-09-19T16:40:21;18.60;99.90
3100;DHT22;1560;52.746;13.474;2023-09-19T16:42:50;18.40;99.90
3100;DHT22;1560;52.746;13.474;2023-09-19T16:45:18;18.40;99.90
3100;DHT22;1560;52.746;13.474;2023-09-19T16:47:47;18.30;99.90
3100;DHT22;1560;52.746;13.474;2023-09-19T16:50:16;18.30;99.90
3100;DHT22;1560;52.746;13.474;2023-09-19T16:55:22;18.30;99.90
3100;DHT22;1560;52.746;13.474;2023-09-19T16:57:50;18.30;99.90
3100;DHT22;1560;52.746;13.474;2023-09-19T17:00:19;18.30;99.90
3100;DHT22;1560;52.746;13.474;2023-09-19T17:02:48;18.20;99.90
3100;DHT22;1560;52.746;13.474;2023-09-19T17:05:17;18.20;99.90
3100;DHT22;1560;52.746;13.474;2023-09-19T17:07:46;18.10;99.90
3100;DHT22;1560;52.746;13.474;2023-09-19T17:12:53;17.90;99.90
3100;DHT22;1560;52.746;13.474;2023-09-19T17:15:23;18.00;99.90
3100;DHT22;1560;52.746;13.474;2023-09-19T17:17:52;17.90;99.90
3100;DHT22;1560;52.746;13.474;2023-09-19T17:20:21;17.90;99.90
3100;DHT22;1560;52.746;13.474;2023-09-19T17:22:50;17.80;99.90
3100;DHT22;1560;52.746;13.474;2023-09-19T17:25:19;17.70;99.90
3100;DHT22;1560;52.746;13.474;2023-09-19T17:27:48;17.60;99.90
3100;DHT22;1560;52.746;13.474;2023-09-19T17:30:16;17.70;99.90
3100;DHT22;1560;52.746;13.474;2023-09-19T17:32:45;17.50;99.90
3100;DHT22;1560;52.746;13.474;2023-09-19T17:37:52;17.40;99.90
3100;DHT22;1560;52.746;13.474;2023-09-19T17:40:20;17.30;99.90
3100;DHT22;1560;52.746;13.474;2023-09-19T17:42:49;17.30;99.90
3100;DHT22;1560;52.746;13.474;2023-09-19T17:45:18;17.30;99.90
3100;DHT22;1560;52.746;13.474;2023-09-19T17:47:47;17.10;99.90
3100;DHT22;1560;52.746;13.474;2023-09-19T17:50:16;17.10;99.90
3100;DHT22;1560;52.746;13.474;2023-09-19T17:52:45;17.10;99.90
3100;DHT22;1560;52.746;13.474;2023-09-19T17:55:14;17.00;99.90
3100;DHT22;1560;52.746;13.474;2023-09-19T17:57:44;16.90;99.90
3100;DHT22;1560;52.746;13.474;2023-09-19T18:00:15;16.80;99.90
3100;DHT22;1560;52.746;13.474;2023-09-19T18:02:45;16.80;99.90
3100;DHT22;1560;52.746;13.474;2023-09-19T18:05:14;16.80;1.00
3100;DHT22;1560;52.746;13.474;2023-09-19T18:07:44;16.80;99.90
3100;DHT22;1560;52.746;13.474;2023-09-19T18:10:14;16.80;99.90
3100;DHT22;1560;52.746;13.474;2023-09-19T18:12:44;16.80;1.00
3100;DHT22;1560;52.746;13.474;2023-09-19T18:17:51;16.70;99.90
3100;DHT22;1560;52.746;13.474;2023-09-19T18:20:20;16.70;99.90
3100;DHT22;1560;52.746;13.474;2023-09-19T18:22:49;16.70;99.90
3100;DHT22;1560;52.746;13.474;2023-09-19T18:25:19;16.70;99.90
3100;DHT22;1560;52.746;13.474;2023-09-19T18:27:48;16.70;99.90
3100;DHT22;1560;52.746;13.474;2023-09-19T18:30:17;16.60;99.90
3100;DHT22;1560;52.746;13.474;2023-09-19T18:32:45;16.60;99.90
3100;DHT22;1560;52.746;13.474;2023-09-19T18:37:50;16.50;1.00
3100;DHT22;1560;52.746;13.474;2023-09-19T18:40:21;16.50;1.00
3100;DHT22;1560;52.746;13.474;2023-09-19T18:42:50;16.50;1.00
3100;DHT22;1560;52.746;13.474;2023-09-19T18:45:19;16.50;1.00
3100;DHT22;1560;52.746;13.474;2023-09-19T18:47:48;16.50;1.00
3100;DHT22;1560;52.746;13.474;2023-09-19T18:52:53;16.50;1.00
3100;DHT22;1560;52.746;13.474;2023-09-19T18:55:22;16.40;1.00
3100;DHT22;1560;52.746;13.474;2023-09-19T18:57:53;16.30;1.00
3100;DHT22;1560;52.746;13.474;2023-09-19T19:00:22;16.20;1.00
3100;DHT22;1560;52.746;13.474;2023-09-19T19:02:52;16.10;1.00
3100;DHT22;1560;52.746;13.474;2023-09-19T19:05:21;16.00;1.00